DLH1432 TNCM-TTCP
Flight info
| Callsign | DLH1432 |
|---|---|
| Flight time | 1h 14m |
| Altitude | 23000 |
| Route | MODOR2 ZPATA A517 PPR/N0459F410 UA312 FOF/N0459F400 UA324 GND/N0387F230 R508 ELTUN |
| Aircraft | A343/H-SDE2E3FGHIJ4J5M1RWXY/LB1D1 |
Departure
| Time | 2026-04-25 19:37 |
|---|---|
| Airport | Princess Juliana International Airport (TNCM) |
Arrival
| Time | 2026-04-25 20:52 |
|---|---|
| Airport | A.N.R. Robinson International Airport (TTCP) |
| Time | Latitude | Longitude | Altitude | Speed | Heading |
|---|---|---|---|---|---|
| 2026-04-25 19:11 | 18.04337 | -63.11293 | 25 ft | 0 kts | 352° |
| 2026-04-25 19:30 | 18.04323 | -63.11291 | 29 ft | 2 kts | 352° |
| 2026-04-25 19:30 | 18.04298 | -63.11287 | 30 ft | 4 kts | 350° |
| 2026-04-25 19:30 | 18.04272 | -63.11285 | 29 ft | 4 kts | 21° |
| 2026-04-25 19:30 | 18.04254 | -63.11300 | 30 ft | 4 kts | 54° |
| 2026-04-25 19:31 | 18.04243 | -63.11324 | 30 ft | 4 kts | 82° |
| 2026-04-25 19:31 | 18.04241 | -63.11351 | 30 ft | 2 kts | 82° |
| 2026-04-25 19:31 | 18.04237 | -63.11376 | 29 ft | 4 kts | 81° |
| 2026-04-25 19:31 | 18.04234 | -63.11397 | 30 ft | 0 kts | 81° |
| 2026-04-25 19:33 | 18.04235 | -63.11393 | 30 ft | 2 kts | 81° |
| 2026-04-25 19:33 | 18.04236 | -63.11356 | 29 ft | 6 kts | 93° |
| 2026-04-25 19:33 | 18.04217 | -63.11317 | 28 ft | 6 kts | 136° |
| 2026-04-25 19:34 | 18.04178 | -63.11303 | 28 ft | 8 kts | 165° |
| 2026-04-25 19:34 | 18.04092 | -63.11290 | 26 ft | 14 kts | 178° |
| 2026-04-25 19:34 | 18.04030 | -63.11326 | 28 ft | 7 kts | 246° |
| 2026-04-25 19:34 | 18.04018 | -63.11389 | 26 ft | 11 kts | 261° |
| 2026-04-25 19:35 | 18.04008 | -63.11478 | 25 ft | 14 kts | 263° |
| 2026-04-25 19:35 | 18.03993 | -63.11600 | 26 ft | 19 kts | 262° |
| 2026-04-25 19:35 | 18.03972 | -63.11753 | 27 ft | 23 kts | 262° |
| 2026-04-25 19:35 | 18.03984 | -63.11909 | 30 ft | 19 kts | 287° |
| 2026-04-25 19:36 | 18.03963 | -63.11954 | 30 ft | 2 kts | 178° |
| 2026-04-25 19:36 | 18.03959 | -63.11948 | 29 ft | 2 kts | 139° |
| 2026-04-25 19:36 | 18.03953 | -63.11911 | 28 ft | 0 kts | 85° |
| 2026-04-25 19:36 | 18.03967 | -63.11794 | 31 ft | 47 kts | 82° |
| 2026-04-25 19:37 | 18.04048 | -63.11218 | 27 ft | 110 kts | 81° |
| 2026-04-25 19:37 | 18.04185 | -63.10250 | 46 ft | 157 kts | 83° |
| 2026-04-25 19:37 | 18.04282 | -63.09084 | 572 ft | 161 kts | 99° |
| 2026-04-25 19:37 | 18.03685 | -63.08107 | 1073 ft | 168 kts | 150° |
| 2026-04-25 19:38 | 18.02481 | -63.07956 | 1430 ft | 192 kts | 195° |
| 2026-04-25 19:38 | 18.01117 | -63.08306 | 1787 ft | 216 kts | 181° |
| 2026-04-25 19:38 | 17.99527 | -63.08232 | 2268 ft | 243 kts | 176° |
| 2026-04-25 19:38 | 17.97796 | -63.08142 | 3262 ft | 247 kts | 178° |
| 2026-04-25 19:39 | 17.96095 | -63.08106 | 4272 ft | 250 kts | 180° |
| 2026-04-25 19:39 | 17.94342 | -63.08101 | 5260 ft | 254 kts | 181° |
| 2026-04-25 19:39 | 17.92551 | -63.08115 | 6232 ft | 259 kts | 181° |
| 2026-04-25 19:39 | 17.90728 | -63.08141 | 7135 ft | 264 kts | 182° |
| 2026-04-25 19:40 | 17.88871 | -63.08146 | 8019 ft | 271 kts | 179° |
| 2026-04-25 19:40 | 17.86992 | -63.07787 | 8899 ft | 279 kts | 162° |
| 2026-04-25 19:40 | 17.85227 | -63.06881 | 9800 ft | 286 kts | 152° |
| 2026-04-25 19:40 | 17.83487 | -63.05795 | 10430 ft | 299 kts | 151° |
| 2026-04-25 19:41 | 17.81638 | -63.04627 | 10781 ft | 321 kts | 151° |
| 2026-04-25 19:41 | 17.79663 | -63.03388 | 11118 ft | 340 kts | 151° |
| 2026-04-25 19:41 | 17.77595 | -63.02095 | 11658 ft | 350 kts | 151° |
| 2026-04-25 19:41 | 17.76197 | -63.01223 | 12077 ft | 355 kts | 151° |
| 2026-04-25 19:42 | 17.73328 | -62.99437 | 12975 ft | 362 kts | 152° |
| 2026-04-25 19:42 | 17.71138 | -62.98076 | 13675 ft | 367 kts | 152° |
| 2026-04-25 19:42 | 17.68924 | -62.96702 | 14304 ft | 372 kts | 152° |
| 2026-04-25 19:42 | 17.66717 | -62.95332 | 14935 ft | 375 kts | 152° |
| 2026-04-25 19:43 | 17.64457 | -62.93931 | 15589 ft | 378 kts | 152° |
| 2026-04-25 19:43 | 17.62181 | -62.92521 | 16261 ft | 382 kts | 152° |
| 2026-04-25 19:43 | 17.59886 | -62.91099 | 16945 ft | 386 kts | 152° |
| 2026-04-25 19:43 | 17.57566 | -62.89662 | 17629 ft | 389 kts | 152° |
| 2026-04-25 19:44 | 17.55220 | -62.88209 | 18309 ft | 392 kts | 152° |
| 2026-04-25 19:44 | 17.52854 | -62.86745 | 18871 ft | 397 kts | 152° |
| 2026-04-25 19:44 | 17.50461 | -62.85265 | 19418 ft | 401 kts | 153° |
| 2026-04-25 19:44 | 17.48044 | -62.83770 | 19966 ft | 405 kts | 153° |
| 2026-04-25 19:45 | 17.45590 | -62.82287 | 20510 ft | 408 kts | 155° |
| 2026-04-25 19:45 | 17.43042 | -62.80937 | 21091 ft | 410 kts | 158° |
| 2026-04-25 19:45 | 17.40446 | -62.79673 | 21653 ft | 413 kts | 159° |
| 2026-04-25 19:45 | 17.37819 | -62.78427 | 22192 ft | 417 kts | 159° |
| 2026-04-25 19:46 | 17.35201 | -62.77180 | 22753 ft | 420 kts | 159° |
| 2026-04-25 19:46 | 17.32541 | -62.75870 | 23258 ft | 425 kts | 156° |
| 2026-04-25 19:46 | 17.29990 | -62.74237 | 23706 ft | 434 kts | 147° |
| 2026-04-25 19:46 | 17.27684 | -62.72160 | 24146 ft | 442 kts | 139° |
| 2026-04-25 19:47 | 17.25528 | -62.69842 | 24575 ft | 447 kts | 137° |
| 2026-04-25 19:47 | 17.23422 | -62.67414 | 24978 ft | 451 kts | 135° |
| 2026-04-25 19:47 | 17.21337 | -62.64929 | 25386 ft | 455 kts | 135° |
| 2026-04-25 19:47 | 17.19275 | -62.62448 | 25789 ft | 459 kts | 135° |
| 2026-04-25 19:48 | 17.17170 | -62.59921 | 26190 ft | 463 kts | 135° |
| 2026-04-25 19:48 | 17.15044 | -62.57386 | 26569 ft | 466 kts | 136° |
| 2026-04-25 19:48 | 17.12879 | -62.54822 | 26951 ft | 470 kts | 136° |
| 2026-04-25 19:48 | 17.10703 | -62.52256 | 27356 ft | 473 kts | 136° |
| 2026-04-25 19:49 | 17.08513 | -62.49682 | 27771 ft | 475 kts | 136° |
| 2026-04-25 19:49 | 17.07773 | -62.48813 | 27897 ft | 475 kts | 136° |
| 2026-04-25 19:49 | 17.04096 | -62.44498 | 28503 ft | 481 kts | 136° |
| 2026-04-25 19:49 | 17.01859 | -62.41875 | 28847 ft | 484 kts | 136° |
| 2026-04-25 19:50 | 16.97608 | -62.36289 | 28558 ft | 518 kts | 121° |
| 2026-04-25 19:50 | 16.95761 | -62.33080 | 28990 ft | 511 kts | 131° |
| 2026-04-25 19:50 | 16.93611 | -62.30214 | 29700 ft | 503 kts | 135° |
| 2026-04-25 19:51 | 16.91342 | -62.27452 | 30154 ft | 501 kts | 136° |
| 2026-04-25 19:51 | 16.89014 | -62.24736 | 30510 ft | 501 kts | 137° |
| 2026-04-25 19:51 | 16.86641 | -62.22064 | 30890 ft | 501 kts | 138° |
| 2026-04-25 19:51 | 16.84241 | -62.19424 | 31209 ft | 502 kts | 139° |
| 2026-04-25 19:52 | 16.81815 | -62.16787 | 31511 ft | 503 kts | 139° |
| 2026-04-25 19:52 | 16.79387 | -62.14161 | 31829 ft | 504 kts | 139° |
| 2026-04-25 19:52 | 16.76981 | -62.11559 | 32244 ft | 502 kts | 139° |
| 2026-04-25 19:52 | 16.74565 | -62.08940 | 32673 ft | 500 kts | 139° |
| 2026-04-25 19:53 | 16.72157 | -62.06328 | 33082 ft | 498 kts | 139° |
| 2026-04-25 19:53 | 16.69763 | -62.03730 | 33515 ft | 495 kts | 139° |
| 2026-04-25 19:53 | 16.67380 | -62.01142 | 33970 ft | 492 kts | 139° |
| 2026-04-25 19:53 | 16.65009 | -61.98569 | 34300 ft | 491 kts | 139° |
| 2026-04-25 19:54 | 16.62641 | -61.96000 | 34622 ft | 489 kts | 139° |
| 2026-04-25 19:54 | 16.60328 | -61.93452 | 34957 ft | 489 kts | 138° |
| 2026-04-25 19:54 | 16.58047 | -61.90818 | 35286 ft | 488 kts | 137° |
| 2026-04-25 19:54 | 16.56564 | -61.89069 | 35495 ft | 486 kts | 136° |
| 2026-04-25 19:55 | 16.53582 | -61.85528 | 35944 ft | 484 kts | 136° |
| 2026-04-25 19:55 | 16.51379 | -61.82922 | 36217 ft | 483 kts | 137° |
| 2026-04-25 19:55 | 16.49148 | -61.80299 | 36555 ft | 482 kts | 137° |
| 2026-04-25 19:55 | 16.46922 | -61.77697 | 36846 ft | 481 kts | 137° |
| 2026-04-25 19:56 | 16.44691 | -61.75098 | 37143 ft | 480 kts | 137° |
| 2026-04-25 19:56 | 16.42467 | -61.72513 | 37441 ft | 478 kts | 137° |
| 2026-04-25 19:56 | 16.40245 | -61.69934 | 37735 ft | 477 kts | 137° |
| 2026-04-25 19:56 | 16.38032 | -61.67367 | 38013 ft | 476 kts | 138° |
| 2026-04-25 19:57 | 16.35820 | -61.64801 | 38292 ft | 475 kts | 138° |
| 2026-04-25 19:57 | 16.33614 | -61.62242 | 38581 ft | 474 kts | 137° |
| 2026-04-25 19:57 | 16.31410 | -61.59686 | 38846 ft | 472 kts | 137° |
| 2026-04-25 19:57 | 16.29169 | -61.57256 | 39029 ft | 468 kts | 143° |
| 2026-04-25 19:58 | 16.26650 | -61.55148 | 39181 ft | 461 kts | 152° |
| 2026-04-25 19:58 | 16.23892 | -61.53483 | 39350 ft | 454 kts | 161° |
| 2026-04-25 19:58 | 16.20970 | -61.52281 | 39517 ft | 449 kts | 167° |
| 2026-04-25 19:58 | 16.18004 | -61.51272 | 39672 ft | 448 kts | 168° |
| 2026-04-25 19:59 | 16.15019 | -61.50334 | 39838 ft | 448 kts | 169° |
| 2026-04-25 19:59 | 16.09004 | -61.48518 | 39934 ft | 453 kts | 169° |
| 2026-04-25 20:00 | 16.02986 | -61.46685 | 39936 ft | 451 kts | 169° |
| 2026-04-25 20:00 | 15.96967 | -61.44823 | 39941 ft | 450 kts | 169° |
| 2026-04-25 20:01 | 15.87942 | -61.42018 | 39931 ft | 451 kts | 169° |
| 2026-04-25 20:01 | 15.81967 | -61.40164 | 39947 ft | 451 kts | 169° |
| 2026-04-25 20:02 | 15.75944 | -61.38296 | 39942 ft | 451 kts | 169° |
| 2026-04-25 20:02 | 15.69935 | -61.36434 | 39962 ft | 451 kts | 169° |
| 2026-04-25 20:03 | 15.63918 | -61.34571 | 39961 ft | 451 kts | 168° |
| 2026-04-25 20:03 | 15.57902 | -61.32709 | 39964 ft | 450 kts | 168° |
| 2026-04-25 20:04 | 15.51930 | -61.30863 | 39967 ft | 451 kts | 168° |
| 2026-04-25 20:04 | 15.45919 | -61.29006 | 39917 ft | 451 kts | 168° |
| 2026-04-25 20:05 | 15.39904 | -61.27147 | 39914 ft | 451 kts | 168° |
| 2026-04-25 20:05 | 15.33892 | -61.25289 | 39911 ft | 451 kts | 168° |
| 2026-04-25 20:06 | 15.27846 | -61.23426 | 39919 ft | 455 kts | 168° |
| 2026-04-25 20:06 | 15.21799 | -61.21562 | 39923 ft | 455 kts | 168° |
| 2026-04-25 20:07 | 15.15729 | -61.19689 | 39928 ft | 455 kts | 168° |
| 2026-04-25 20:07 | 15.09663 | -61.17820 | 39934 ft | 455 kts | 168° |
| 2026-04-25 20:08 | 15.03572 | -61.15945 | 39924 ft | 455 kts | 168° |
| 2026-04-25 20:08 | 14.97488 | -61.14073 | 39937 ft | 457 kts | 168° |
| 2026-04-25 20:09 | 14.91414 | -61.12207 | 39934 ft | 458 kts | 168° |
| 2026-04-25 20:09 | 14.85301 | -61.10328 | 39933 ft | 458 kts | 168° |
| 2026-04-25 20:10 | 14.79185 | -61.08449 | 39937 ft | 458 kts | 168° |
| 2026-04-25 20:10 | 14.73068 | -61.06572 | 39936 ft | 458 kts | 168° |
| 2026-04-25 20:11 | 14.66984 | -61.04708 | 39933 ft | 457 kts | 168° |
| 2026-04-25 20:11 | 14.60883 | -61.02873 | 39931 ft | 454 kts | 171° |
| 2026-04-25 20:12 | 14.54683 | -61.02040 | 39937 ft | 448 kts | 180° |
| 2026-04-25 20:12 | 14.50551 | -61.01773 | 39935 ft | 448 kts | 181° |
| 2026-04-25 20:13 | 14.42263 | -61.01357 | 39931 ft | 448 kts | 181° |
| 2026-04-25 20:13 | 14.36029 | -61.01044 | 39933 ft | 448 kts | 180° |
| 2026-04-25 20:14 | 14.29788 | -61.00715 | 39922 ft | 449 kts | 180° |
| 2026-04-25 20:14 | 14.23533 | -61.00380 | 39931 ft | 450 kts | 180° |
| 2026-04-25 20:15 | 14.17277 | -61.00045 | 39932 ft | 450 kts | 180° |
| 2026-04-25 20:15 | 14.11071 | -60.99713 | 39932 ft | 449 kts | 180° |
| 2026-04-25 20:16 | 14.04821 | -60.99380 | 39936 ft | 450 kts | 180° |
| 2026-04-25 20:16 | 13.98571 | -60.99047 | 39939 ft | 450 kts | 180° |
| 2026-04-25 20:17 | 13.92318 | -60.98714 | 39939 ft | 450 kts | 180° |
| 2026-04-25 20:17 | 13.86066 | -60.98381 | 39940 ft | 450 kts | 180° |
| 2026-04-25 20:18 | 13.80867 | -60.98105 | 39939 ft | 450 kts | 180° |
| 2026-04-25 20:18 | 13.74657 | -60.98072 | 39938 ft | 446 kts | 189° |
| 2026-04-25 20:19 | 13.68669 | -60.99656 | 39939 ft | 442 kts | 202° |
| 2026-04-25 20:19 | 13.62974 | -61.01975 | 39938 ft | 442 kts | 204° |
| 2026-04-25 20:20 | 13.57285 | -61.04417 | 39943 ft | 443 kts | 204° |
| 2026-04-25 20:20 | 13.51594 | -61.06844 | 39938 ft | 442 kts | 204° |
| 2026-04-25 20:21 | 13.45893 | -61.09249 | 39936 ft | 442 kts | 204° |
| 2026-04-25 20:21 | 13.40227 | -61.11630 | 39935 ft | 443 kts | 203° |
| 2026-04-25 20:22 | 13.35469 | -61.13626 | 39920 ft | 443 kts | 204° |
| 2026-04-25 20:22 | 13.28787 | -61.16430 | 39913 ft | 443 kts | 203° |
| 2026-04-25 20:23 | 13.23073 | -61.18827 | 39913 ft | 443 kts | 203° |
| 2026-04-25 20:23 | 13.17386 | -61.21211 | 39912 ft | 444 kts | 203° |
| 2026-04-25 20:24 | 13.11669 | -61.23648 | 39910 ft | 444 kts | 205° |
| 2026-04-25 20:24 | 13.06094 | -61.26394 | 39914 ft | 444 kts | 207° |
| 2026-04-25 20:25 | 13.00587 | -61.29202 | 39918 ft | 444 kts | 207° |
| 2026-04-25 20:25 | 12.95036 | -61.31983 | 39923 ft | 444 kts | 206° |
| 2026-04-25 20:26 | 12.89468 | -61.34731 | 39921 ft | 444 kts | 206° |
| 2026-04-25 20:26 | 12.86686 | -61.36098 | 39730 ft | 442 kts | 206° |
| 2026-04-25 20:26 | 12.83917 | -61.37459 | 39491 ft | 439 kts | 206° |
| 2026-04-25 20:27 | 12.81156 | -61.38817 | 39263 ft | 439 kts | 206° |
| 2026-04-25 20:27 | 12.78397 | -61.40175 | 39020 ft | 439 kts | 206° |
| 2026-04-25 20:27 | 12.75655 | -61.41525 | 38587 ft | 438 kts | 206° |
| 2026-04-25 20:27 | 12.72906 | -61.42878 | 38016 ft | 439 kts | 206° |
| 2026-04-25 20:28 | 12.70152 | -61.44232 | 37453 ft | 439 kts | 207° |
| 2026-04-25 20:28 | 12.67387 | -61.45592 | 36896 ft | 440 kts | 207° |
| 2026-04-25 20:28 | 12.64630 | -61.46947 | 36316 ft | 441 kts | 207° |
| 2026-04-25 20:28 | 12.61852 | -61.48312 | 35708 ft | 444 kts | 207° |
| 2026-04-25 20:29 | 12.59063 | -61.49682 | 35058 ft | 446 kts | 207° |
| 2026-04-25 20:29 | 12.56256 | -61.51061 | 34395 ft | 450 kts | 207° |
| 2026-04-25 20:29 | 12.53408 | -61.52459 | 33632 ft | 454 kts | 207° |
| 2026-04-25 20:29 | 12.50589 | -61.53843 | 32839 ft | 458 kts | 207° |
| 2026-04-25 20:30 | 12.48638 | -61.54800 | 32288 ft | 460 kts | 206° |
| 2026-04-25 20:30 | 12.44793 | -61.56686 | 31279 ft | 463 kts | 206° |
| 2026-04-25 20:30 | 12.41890 | -61.58109 | 30732 ft | 460 kts | 206° |
| 2026-04-25 20:30 | 12.39009 | -61.59521 | 30166 ft | 458 kts | 206° |
| 2026-04-25 20:31 | 12.36139 | -61.60927 | 29529 ft | 456 kts | 206° |
| 2026-04-25 20:31 | 12.33290 | -61.62323 | 28936 ft | 452 kts | 206° |
| 2026-04-25 20:31 | 12.30464 | -61.63708 | 28367 ft | 449 kts | 206° |
| 2026-04-25 20:31 | 12.27650 | -61.65086 | 27793 ft | 446 kts | 206° |
| 2026-04-25 20:32 | 12.24900 | -61.66433 | 27217 ft | 443 kts | 206° |
| 2026-04-25 20:32 | 12.22128 | -61.67791 | 26671 ft | 440 kts | 206° |
| 2026-04-25 20:32 | 12.19372 | -61.69141 | 26087 ft | 437 kts | 205° |
| 2026-04-25 20:32 | 12.16631 | -61.70482 | 25514 ft | 435 kts | 205° |
| 2026-04-25 20:33 | 12.13903 | -61.71817 | 24936 ft | 434 kts | 205° |
| 2026-04-25 20:33 | 12.11187 | -61.73146 | 24361 ft | 432 kts | 205° |
| 2026-04-25 20:33 | 12.08477 | -61.74472 | 23791 ft | 431 kts | 205° |
| 2026-04-25 20:33 | 12.06670 | -61.75325 | 23356 ft | 430 kts | 202° |
| 2026-04-25 20:34 | 12.02844 | -61.76268 | 22459 ft | 428 kts | 183° |
| 2026-04-25 20:34 | 11.99892 | -61.75989 | 21853 ft | 426 kts | 166° |
| 2026-04-25 20:34 | 11.97188 | -61.74806 | 21253 ft | 424 kts | 148° |
| 2026-04-25 20:34 | 11.94885 | -61.72928 | 20716 ft | 423 kts | 138° |
| 2026-04-25 20:35 | 11.92824 | -61.70801 | 20092 ft | 420 kts | 133° |
| 2026-04-25 20:35 | 11.90897 | -61.68594 | 19295 ft | 410 kts | 131° |
| 2026-04-25 20:35 | 11.89083 | -61.66435 | 18717 ft | 393 kts | 131° |
| 2026-04-25 20:35 | 11.87303 | -61.64320 | 18232 ft | 389 kts | 131° |
| 2026-04-25 20:36 | 11.85525 | -61.62247 | 17678 ft | 387 kts | 132° |
| 2026-04-25 20:36 | 11.83740 | -61.60204 | 17156 ft | 384 kts | 133° |
| 2026-04-25 20:36 | 11.81949 | -61.58184 | 16639 ft | 381 kts | 133° |
| 2026-04-25 20:36 | 11.80166 | -61.56190 | 16125 ft | 379 kts | 133° |
| 2026-04-25 20:37 | 11.78391 | -61.54215 | 15608 ft | 377 kts | 133° |
| 2026-04-25 20:37 | 11.76622 | -61.52247 | 15100 ft | 375 kts | 133° |
| 2026-04-25 20:37 | 11.74883 | -61.50315 | 14589 ft | 373 kts | 133° |
| 2026-04-25 20:37 | 11.73135 | -61.48370 | 14078 ft | 371 kts | 133° |
| 2026-04-25 20:38 | 11.71396 | -61.46435 | 13549 ft | 370 kts | 133° |
| 2026-04-25 20:38 | 11.69660 | -61.44502 | 13011 ft | 367 kts | 133° |
| 2026-04-25 20:38 | 11.67940 | -61.42588 | 12500 ft | 364 kts | 133° |
| 2026-04-25 20:38 | 11.66238 | -61.40692 | 12007 ft | 361 kts | 133° |
| 2026-04-25 20:39 | 11.64548 | -61.38808 | 11493 ft | 358 kts | 133° |
| 2026-04-25 20:39 | 11.62878 | -61.36938 | 10990 ft | 355 kts | 133° |
| 2026-04-25 20:39 | 11.61222 | -61.35080 | 10533 ft | 351 kts | 133° |
| 2026-04-25 20:39 | 11.60147 | -61.33874 | 10446 ft | 341 kts | 133° |
| 2026-04-25 20:40 | 11.58073 | -61.31547 | 10314 ft | 322 kts | 133° |
| 2026-04-25 20:40 | 11.56608 | -61.29903 | 10191 ft | 311 kts | 133° |
| 2026-04-25 20:40 | 11.55176 | -61.28299 | 10057 ft | 301 kts | 133° |
| 2026-04-25 20:40 | 11.53788 | -61.26744 | 9864 ft | 293 kts | 133° |
| 2026-04-25 20:41 | 11.52421 | -61.25224 | 9520 ft | 287 kts | 134° |
| 2026-04-25 20:41 | 11.50996 | -61.23835 | 9090 ft | 281 kts | 138° |
| 2026-04-25 20:41 | 11.49569 | -61.22524 | 8712 ft | 272 kts | 138° |
| 2026-04-25 20:41 | 11.48173 | -61.21232 | 8372 ft | 272 kts | 138° |
| 2026-04-25 20:42 | 11.46774 | -61.19924 | 8050 ft | 274 kts | 137° |
| 2026-04-25 20:42 | 11.45374 | -61.18609 | 7773 ft | 273 kts | 137° |
| 2026-04-25 20:42 | 11.43981 | -61.17294 | 7451 ft | 273 kts | 137° |
| 2026-04-25 20:42 | 11.42587 | -61.15975 | 7125 ft | 273 kts | 137° |
| 2026-04-25 20:43 | 11.41197 | -61.14658 | 6796 ft | 272 kts | 137° |
| 2026-04-25 20:43 | 11.39818 | -61.13352 | 6503 ft | 269 kts | 137° |
| 2026-04-25 20:43 | 11.38461 | -61.12066 | 6101 ft | 263 kts | 137° |
| 2026-04-25 20:43 | 11.37132 | -61.10807 | 5722 ft | 259 kts | 136° |
| 2026-04-25 20:44 | 11.35804 | -61.09548 | 5382 ft | 262 kts | 136° |
| 2026-04-25 20:44 | 11.34466 | -61.08280 | 5048 ft | 263 kts | 136° |
| 2026-04-25 20:44 | 11.33147 | -61.07030 | 4721 ft | 262 kts | 136° |
| 2026-04-25 20:44 | 11.31815 | -61.05768 | 4378 ft | 261 kts | 136° |
| 2026-04-25 20:45 | 11.30487 | -61.04509 | 4045 ft | 260 kts | 136° |
| 2026-04-25 20:45 | 11.29152 | -61.03245 | 3707 ft | 258 kts | 136° |
| 2026-04-25 20:45 | 11.27858 | -61.02022 | 3400 ft | 257 kts | 136° |
| 2026-04-25 20:45 | 11.26402 | -61.00981 | 3043 ft | 257 kts | 155° |
| 2026-04-25 20:46 | 11.24644 | -61.00627 | 2689 ft | 260 kts | 178° |
| 2026-04-25 20:46 | 11.22848 | -61.00728 | 2488 ft | 254 kts | 182° |
| 2026-04-25 20:46 | 11.21112 | -61.00879 | 2353 ft | 246 kts | 182° |
| 2026-04-25 20:46 | 11.19454 | -61.01012 | 2302 ft | 232 kts | 180° |
| 2026-04-25 20:47 | 11.17956 | -61.00835 | 2313 ft | 202 kts | 157° |
| 2026-04-25 20:47 | 11.16878 | -61.00133 | 2338 ft | 169 kts | 133° |
| 2026-04-25 20:47 | 11.16287 | -60.99219 | 2321 ft | 144 kts | 112° |
| 2026-04-25 20:47 | 11.16068 | -60.98278 | 2318 ft | 139 kts | 97° |
| 2026-04-25 20:48 | 11.15980 | -60.97235 | 2306 ft | 149 kts | 95° |
| 2026-04-25 20:48 | 11.15905 | -60.96192 | 2296 ft | 147 kts | 96° |
| 2026-04-25 20:48 | 11.15834 | -60.95200 | 2207 ft | 138 kts | 96° |
| 2026-04-25 20:48 | 11.15766 | -60.94253 | 1994 ft | 132 kts | 96° |
| 2026-04-25 20:49 | 11.15699 | -60.93326 | 1816 ft | 130 kts | 96° |
| 2026-04-25 20:49 | 11.15633 | -60.92405 | 1652 ft | 130 kts | 95° |
| 2026-04-25 20:49 | 11.15569 | -60.91488 | 1467 ft | 130 kts | 97° |
| 2026-04-25 20:49 | 11.15501 | -60.90569 | 1314 ft | 131 kts | 97° |
| 2026-04-25 20:50 | 11.15433 | -60.89643 | 1119 ft | 131 kts | 97° |
| 2026-04-25 20:50 | 11.15366 | -60.88719 | 961 ft | 130 kts | 96° |
| 2026-04-25 20:50 | 11.15298 | -60.87799 | 799 ft | 130 kts | 96° |
| 2026-04-25 20:50 | 11.15234 | -60.86897 | 624 ft | 130 kts | 97° |
| 2026-04-25 20:51 | 11.15168 | -60.85985 | 437 ft | 129 kts | 97° |
| 2026-04-25 20:51 | 11.15101 | -60.85072 | 267 ft | 130 kts | 96° |
| 2026-04-25 20:51 | 11.15039 | -60.84161 | 43 ft | 126 kts | 95° |
| 2026-04-25 20:51 | 11.14986 | -60.83496 | 40 ft | 52 kts | 94° |
| 2026-04-25 20:52 | 11.14970 | -60.83289 | 41 ft | 26 kts | 95° |
| 2026-04-25 20:52 | 11.14958 | -60.83150 | 42 ft | 32 kts | 95° |
| 2026-04-25 20:52 | 11.14922 | -60.82888 | 41 ft | 19 kts | 118° |
| 2026-04-25 20:52 | 11.14920 | -60.82810 | 40 ft | 3 kts | 25° |
| 2026-04-25 20:53 | 11.14932 | -60.82825 | 40 ft | 6 kts | 294° |
| 2026-04-25 20:53 | 11.14945 | -60.82936 | 41 ft | 21 kts | 274° |
| 2026-04-25 20:53 | 11.14957 | -60.83104 | 42 ft | 27 kts | 274° |
| 2026-04-25 20:53 | 11.14972 | -60.83307 | 41 ft | 29 kts | 274° |
| 2026-04-25 20:54 | 11.14987 | -60.83511 | 40 ft | 30 kts | 274° |
| 2026-04-25 20:54 | 11.15006 | -60.83730 | 39 ft | 32 kts | 281° |
| 2026-04-25 20:54 | 11.15087 | -60.83848 | 38 ft | 3 kts | 332° |
| 2026-04-25 20:54 | 11.15104 | -60.83852 | 38 ft | 3 kts | 347° |
| 2026-04-25 20:55 | 11.15137 | -60.83855 | 39 ft | 4 kts | 359° |
| 2026-04-25 20:55 | 11.15159 | -60.83853 | 40 ft | 3 kts | 6° |
| 2026-04-25 20:55 | 11.15162 | -60.83852 | 40 ft | 1 kts | 6° |
| 2026-04-25 20:55 | 11.15170 | -60.83851 | 40 ft | 0 kts | 6° |
| 2026-04-25 20:56 | 11.15171 | -60.83851 | 40 ft | 1 kts | 6° |
| 2026-04-25 20:56 | 11.15172 | -60.83851 | 40 ft | 0 kts | 6° |